sensor_id;sensor_type;location;lat;lon;timestamp;temperature;humidity
66962;HTU21D;53897;51.126;5.868;2023-07-31T00:00:30;26.67;48.63
66962;HTU21D;53897;51.126;5.868;2023-07-31T00:02:56;26.66;48.76
66962;HTU21D;53897;51.126;5.868;2023-07-31T00:05:21;26.66;48.82
66962;HTU21D;53897;51.126;5.868;2023-07-31T00:07:47;26.65;48.88
66962;HTU21D;53897;51.126;5.868;2023-07-31T00:10:13;26.65;48.82
66962;HTU21D;53897;51.126;5.868;2023-07-31T00:12:41;26.65;48.85
66962;HTU21D;53897;51.126;5.868;2023-07-31T00:15:08;26.64;48.82
66962;HTU21D;53897;51.126;5.868;2023-07-31T00:17:34;26.64;48.81
66962;HTU21D;53897;51.126;5.868;2023-07-31T00:19:59;26.62;48.77
66962;HTU21D;53897;51.126;5.868;2023-07-31T00:22:25;26.64;48.65
66962;HTU21D;53897;51.126;5.868;2023-07-31T00:24:51;26.62;48.63
66962;HTU21D;53897;51.126;5.868;2023-07-31T00:27:16;26.62;48.65
66962;HTU21D;53897;51.126;5.868;2023-07-31T00:29:43;26.61;48.66
66962;HTU21D;53897;51.126;5.868;2023-07-31T00:32:08;26.61;48.66
66962;HTU21D;53897;51.126;5.868;2023-07-31T00:34:37;26.61;48.66
66962;HTU21D;53897;51.126;5.868;2023-07-31T00:37:03;26.58;48.63
66962;HTU21D;53897;51.126;5.868;2023-07-31T00:39:30;26.60;48.63
66962;HTU21D;53897;51.126;5.868;2023-07-31T00:41:55;26.58;48.63
66962;HTU21D;53897;51.126;5.868;2023-07-31T00:44:21;26.56;48.62
66962;HTU21D;53897;51.126;5.868;2023-07-31T00:46:47;26.57;48.65
66962;HTU21D;53897;51.126;5.868;2023-07-31T00:49:13;26.56;48.66
66962;HTU21D;53897;51.126;5.868;2023-07-31T00:51:39;26.55;48.71
66962;HTU21D;53897;51.126;5.868;2023-07-31T00:54:06;26.55;48.64
66962;HTU21D;53897;51.126;5.868;2023-07-31T00:56:32;26.55;48.61
66962;HTU21D;53897;51.126;5.868;2023-07-31T00:58:58;26.53;48.63
66962;HTU21D;53897;51.126;5.868;2023-07-31T01:01:24;26.54;48.63
66962;HTU21D;53897;51.126;5.868;2023-07-31T01:03:52;26.54;48.66
66962;HTU21D;53897;51.126;5.868;2023-07-31T01:06:37;26.53;48.70
66962;HTU21D;53897;51.126;5.868;2023-07-31T01:09:08;26.53;48.69
66962;HTU21D;53897;51.126;5.868;2023-07-31T01:11:48;26.53;48.69
66962;HTU21D;53897;51.126;5.868;2023-07-31T01:14:15;26.52;48.72
66962;HTU21D;53897;51.126;5.868;2023-07-31T01:16:41;26.51;48.71
66962;HTU21D;53897;51.126;5.868;2023-07-31T01:19:09;26.50;48.67
66962;HTU21D;53897;51.126;5.868;2023-07-31T01:24:30;26.49;48.60
66962;HTU21D;53897;51.126;5.868;2023-07-31T01:27:14;26.49;48.59
66962;HTU21D;53897;51.126;5.868;2023-07-31T01:29:49;26.49;48.59
66962;HTU21D;53897;51.126;5.868;2023-07-31T01:32:19;26.48;48.58
66962;HTU21D;53897;51.126;5.868;2023-07-31T01:34:46;26.47;48.54
66962;HTU21D;53897;51.126;5.868;2023-07-31T01:37:13;26.47;48.53
66962;HTU21D;53897;51.126;5.868;2023-07-31T01:39:38;26.47;48.50
66962;HTU21D;53897;51.126;5.868;2023-07-31T01:42:04;26.47;48.50
66962;HTU21D;53897;51.126;5.868;2023-07-31T01:44:30;26.46;48.50
66962;HTU21D;53897;51.126;5.868;2023-07-31T01:46:56;26.46;48.47
66962;HTU21D;53897;51.126;5.868;2023-07-31T01:49:21;26.46;48.47
66962;HTU21D;53897;51.126;5.868;2023-07-31T01:51:47;26.43;48.46
66962;HTU21D;53897;51.126;5.868;2023-07-31T01:54:13;26.46;48.50
66962;HTU21D;53897;51.126;5.868;2023-07-31T01:56:38;26.43;48.53
66962;HTU21D;53897;51.126;5.868;2023-07-31T01:59:04;26.42;48.57
66962;HTU21D;53897;51.126;5.868;2023-07-31T02:01:30;26.42;48.57
66962;HTU21D;53897;51.126;5.868;2023-07-31T02:03:55;26.41;48.56
66962;HTU21D;53897;51.126;5.868;2023-07-31T02:06:22;26.41;48.57
66962;HTU21D;53897;51.126;5.868;2023-07-31T02:08:48;26.41;48.56
66962;HTU21D;53897;51.126;5.868;2023-07-31T02:11:14;26.39;48.47
66962;HTU21D;53897;51.126;5.868;2023-07-31T02:13:40;26.40;48.50
66962;HTU21D;53897;51.126;5.868;2023-07-31T02:16:06;26.39;48.57
66962;HTU21D;53897;51.126;5.868;2023-07-31T02:18:32;26.38;48.58
66962;HTU21D;53897;51.126;5.868;2023-07-31T02:20:58;26.38;48.50
66962;HTU21D;53897;51.126;5.868;2023-07-31T02:23:25;26.39;48.37
66962;HTU21D;53897;51.126;5.868;2023-07-31T02:25:51;26.36;48.29
66962;HTU21D;53897;51.126;5.868;2023-07-31T02:28:16;26.37;48.27
66962;HTU21D;53897;51.126;5.868;2023-07-31T02:30:45;26.37;48.25
66962;HTU21D;53897;51.126;5.868;2023-07-31T02:33:11;26.37;48.24
66962;HTU21D;53897;51.126;5.868;2023-07-31T02:35:37;26.36;48.23
66962;HTU21D;53897;51.126;5.868;2023-07-31T02:38:03;26.36;48.21
66962;HTU21D;53897;51.126;5.868;2023-07-31T02:40:28;26.34;48.20
66962;HTU21D;53897;51.126;5.868;2023-07-31T02:42:54;26.35;48.18
66962;HTU21D;53897;51.126;5.868;2023-07-31T02:45:20;26.34;48.17
66962;HTU21D;53897;51.126;5.868;2023-07-31T02:47:46;26.33;48.14
66962;HTU21D;53897;51.126;5.868;2023-07-31T02:50:11;26.33;48.12
66962;HTU21D;53897;51.126;5.868;2023-07-31T02:52:37;26.33;48.12
66962;HTU21D;53897;51.126;5.868;2023-07-31T02:55:03;26.33;48.10
66962;HTU21D;53897;51.126;5.868;2023-07-31T02:57:29;26.33;48.11
66962;HTU21D;53897;51.126;5.868;2023-07-31T02:59:55;26.30;48.08
66962;HTU21D;53897;51.126;5.868;2023-07-31T03:02:20;26.32;48.08
66962;HTU21D;53897;51.126;5.868;2023-07-31T03:04:46;26.30;48.15
66962;HTU21D;53897;51.126;5.868;2023-07-31T03:07:11;26.30;48.21
66962;HTU21D;53897;51.126;5.868;2023-07-31T03:09:37;26.30;48.28
66962;HTU21D;53897;51.126;5.868;2023-07-31T03:12:03;26.30;48.31
66962;HTU21D;53897;51.126;5.868;2023-07-31T03:14:29;26.28;48.29
66962;HTU21D;53897;51.126;5.868;2023-07-31T03:16:54;26.27;48.34
66962;HTU21D;53897;51.126;5.868;2023-07-31T03:19:20;26.27;48.38
66962;HTU21D;53897;51.126;5.868;2023-07-31T03:21:46;26.27;48.44
66962;HTU21D;53897;51.126;5.868;2023-07-31T03:24:12;26.27;48.47
66962;HTU21D;53897;51.126;5.868;2023-07-31T03:26:38;26.25;48.47
66962;HTU21D;53897;51.126;5.868;2023-07-31T03:29:07;26.25;48.45
66962;HTU21D;53897;51.126;5.868;2023-07-31T03:31:33;26.25;48.47
66962;HTU21D;53897;51.126;5.868;2023-07-31T03:33:58;26.24;48.46
66962;HTU21D;53897;51.126;5.868;2023-07-31T03:36:24;26.25;48.45
66962;HTU21D;53897;51.126;5.868;2023-07-31T03:38:51;26.24;48.46
66962;HTU21D;53897;51.126;5.868;2023-07-31T03:41:17;26.23;48.44
66962;HTU21D;53897;51.126;5.868;2023-07-31T03:43:47;26.24;48.47
66962;HTU21D;53897;51.126;5.868;2023-07-31T03:46:13;26.23;48.47
66962;HTU21D;53897;51.126;5.868;2023-07-31T03:48:39;26.22;48.47
66962;HTU21D;53897;51.126;5.868;2023-07-31T03:51:04;26.22;48.47
66962;HTU21D;53897;51.126;5.868;2023-07-31T03:53:31;26.22;48.47
66962;HTU21D;53897;51.126;5.868;2023-07-31T03:55:56;26.22;48.49
66962;HTU21D;53897;51.126;5.868;2023-07-31T03:58:22;26.20;48.49
66962;HTU21D;53897;51.126;5.868;2023-07-31T04:00:48;26.21;48.50
66962;HTU21D;53897;51.126;5.868;2023-07-31T04:03:13;26.22;48.50
66962;HTU21D;53897;51.126;5.868;2023-07-31T04:05:39;26.20;48.41
66962;HTU21D;53897;51.126;5.868;2023-07-31T04:08:05;26.20;48.38
66962;HTU21D;53897;51.126;5.868;2023-07-31T04:10:31;26.18;48.41
66962;HTU21D;53897;51.126;5.868;2023-07-31T04:12:59;26.17;48.44
66962;HTU21D;53897;51.126;5.868;2023-07-31T04:15:26;26.17;48.48
66962;HTU21D;53897;51.126;5.868;2023-07-31T04:17:51;26.17;48.43
66962;HTU21D;53897;51.126;5.868;2023-07-31T04:20:17;26.19;48.44
66962;HTU21D;53897;51.126;5.868;2023-07-31T04:22:43;26.19;48.43
66962;HTU21D;53897;51.126;5.868;2023-07-31T04:25:08;26.17;48.46
66962;HTU21D;53897;51.126;5.868;2023-07-31T04:27:34;26.15;48.50
66962;HTU21D;53897;51.126;5.868;2023-07-31T04:30:00;26.13;48.53
66962;HTU21D;53897;51.126;5.868;2023-07-31T04:32:25;26.13;48.50
66962;HTU21D;53897;51.126;5.868;2023-07-31T04:34:51;26.15;48.50
66962;HTU21D;53897;51.126;5.868;2023-07-31T04:37:17;26.16;48.47
66962;HTU21D;53897;51.126;5.868;2023-07-31T04:39:42;26.16;48.47
66962;HTU21D;53897;51.126;5.868;2023-07-31T04:42:08;26.16;48.47
66962;HTU21D;53897;51.126;5.868;2023-07-31T04:44:35;26.17;48.47
66962;HTU21D;53897;51.126;5.868;2023-07-31T04:47:00;26.15;48.53
66962;HTU21D;53897;51.126;5.868;2023-07-31T04:49:27;26.15;48.56
66962;HTU21D;53897;51.126;5.868;2023-07-31T04:51:53;26.15;48.57
66962;HTU21D;53897;51.126;5.868;2023-07-31T04:54:18;26.15;48.57
66962;HTU21D;53897;51.126;5.868;2023-07-31T04:56:44;26.16;48.56
66962;HTU21D;53897;51.126;5.868;2023-07-31T04:59:10;26.15;48.56
66962;HTU21D;53897;51.126;5.868;2023-07-31T05:01:35;26.15;48.56
66962;HTU21D;53897;51.126;5.868;2023-07-31T05:04:01;26.13;48.61
66962;HTU21D;53897;51.126;5.868;2023-07-31T05:06:27;26.11;48.65
66962;HTU21D;53897;51.126;5.868;2023-07-31T05:08:53;26.12;48.63
66962;HTU21D;53897;51.126;5.868;2023-07-31T05:11:18;26.12;48.62
66962;HTU21D;53897;51.126;5.868;2023-07-31T05:13:44;26.13;48.60
66962;HTU21D;53897;51.126;5.868;2023-07-31T05:16:10;26.15;48.60
66962;HTU21D;53897;51.126;5.868;2023-07-31T05:18:35;26.15;48.62
66962;HTU21D;53897;51.126;5.868;2023-07-31T05:21:01;26.12;48.63
66962;HTU21D;53897;51.126;5.868;2023-07-31T05:23:27;26.13;48.63
66962;HTU21D;53897;51.126;5.868;2023-07-31T05:25:53;26.15;48.63
66962;HTU21D;53897;51.126;5.868;2023-07-31T05:28:21;26.12;48.68
66962;HTU21D;53897;51.126;5.868;2023-07-31T05:30:47;26.10;48.72
66962;HTU21D;53897;51.126;5.868;2023-07-31T05:33:13;26.07;48.81
66962;HTU21D;53897;51.126;5.868;2023-07-31T05:35:38;26.05;48.88
66962;HTU21D;53897;51.126;5.868;2023-07-31T05:38:04;26.07;48.85
66962;HTU21D;53897;51.126;5.868;2023-07-31T05:40:32;26.07;48.86
66962;HTU21D;53897;51.126;5.868;2023-07-31T05:42:58;26.07;48.87
66962;HTU21D;53897;51.126;5.868;2023-07-31T05:45:25;26.07;48.89
66962;HTU21D;53897;51.126;5.868;2023-07-31T05:47:51;26.08;48.92
66962;HTU21D;53897;51.126;5.868;2023-07-31T05:50:16;26.10;48.95
66962;HTU21D;53897;51.126;5.868;2023-07-31T05:52:42;26.08;48.98
66962;HTU21D;53897;51.126;5.868;2023-07-31T05:55:08;26.10;48.97
66962;HTU21D;53897;51.126;5.868;2023-07-31T05:57:33;26.10;48.96
66962;HTU21D;53897;51.126;5.868;2023-07-31T05:59:59;26.10;48.94
66962;HTU21D;53897;51.126;5.868;2023-07-31T06:02:25;26.11;48.92
66962;HTU21D;53897;51.126;5.868;2023-07-31T06:04:50;26.12;48.91
66962;HTU21D;53897;51.126;5.868;2023-07-31T06:07:16;26.11;48.89
66962;HTU21D;53897;51.126;5.868;2023-07-31T06:09:42;26.11;48.88
66962;HTU21D;53897;51.126;5.868;2023-07-31T06:12:08;26.11;48.87
66962;HTU21D;53897;51.126;5.868;2023-07-31T06:14:34;26.11;48.88
66962;HTU21D;53897;51.126;5.868;2023-07-31T06:16:59;26.12;48.93
66962;HTU21D;53897;51.126;5.868;2023-07-31T06:19:25;26.11;48.92
66962;HTU21D;53897;51.126;5.868;2023-07-31T06:21:51;26.11;48.87
66962;HTU21D;53897;51.126;5.868;2023-07-31T06:24:16;26.12;48.82
66962;HTU21D;53897;51.126;5.868;2023-07-31T06:26:45;26.12;48.79
66962;HTU21D;53897;51.126;5.868;2023-07-31T06:29:11;26.11;48.86
66962;HTU21D;53897;51.126;5.868;2023-07-31T06:31:36;26.12;48.92
66962;HTU21D;53897;51.126;5.868;2023-07-31T06:34:02;26.12;48.91
66962;HTU21D;53897;51.126;5.868;2023-07-31T06:36:28;26.12;48.91
66962;HTU21D;53897;51.126;5.868;2023-07-31T06:38:53;26.11;48.93
66962;HTU21D;53897;51.126;5.868;2023-07-31T06:41:19;26.12;48.96
66962;HTU21D;53897;51.126;5.868;2023-07-31T06:43:46;26.11;49.04
66962;HTU21D;53897;51.126;5.868;2023-07-31T06:46:11;26.09;49.15
66962;HTU21D;53897;51.126;5.868;2023-07-31T06:48:37;26.05;49.21
66962;HTU21D;53897;51.126;5.868;2023-07-31T06:51:03;26.04;49.29
66962;HTU21D;53897;51.126;5.868;2023-07-31T06:53:29;26.02;49.35
66962;HTU21D;53897;51.126;5.868;2023-07-31T06:55:55;26.02;49.34
66962;HTU21D;53897;51.126;5.868;2023-07-31T06:58:20;26.02;49.32
66962;HTU21D;53897;51.126;5.868;2023-07-31T07:00:46;26.03;49.28
66962;HTU21D;53897;51.126;5.868;2023-07-31T07:03:11;26.04;49.27
66962;HTU21D;53897;51.126;5.868;2023-07-31T07:05:40;26.04;49.26
66962;HTU21D;53897;51.126;5.868;2023-07-31T07:08:06;26.05;49.21
66962;HTU21D;53897;51.126;5.868;2023-07-31T07:10:31;26.06;49.15
66962;HTU21D;53897;51.126;5.868;2023-07-31T07:12:57;26.06;49.03
66962;HTU21D;53897;51.126;5.868;2023-07-31T07:15:23;26.06;49.03
66962;HTU21D;53897;51.126;5.868;2023-07-31T07:17:48;26.07;49.08
66962;HTU21D;53897;51.126;5.868;2023-07-31T07:20:14;26.08;49.11
66962;HTU21D;53897;51.126;5.868;2023-07-31T07:22:40;26.08;49.15
66962;HTU21D;53897;51.126;5.868;2023-07-31T07:25:08;26.09;49.16
66962;HTU21D;53897;51.126;5.868;2023-07-31T07:27:34;26.09;49.11
66962;HTU21D;53897;51.126;5.868;2023-07-31T07:30:00;26.10;49.05
66962;HTU21D;53897;51.126;5.868;2023-07-31T07:32:26;26.10;49.04
66962;HTU21D;53897;51.126;5.868;2023-07-31T07:34:51;26.11;49.03
66962;HTU21D;53897;51.126;5.868;2023-07-31T07:37:17;26.11;49.01
66962;HTU21D;53897;51.126;5.868;2023-07-31T07:39:44;26.11;49.02
66962;HTU21D;53897;51.126;5.868;2023-07-31T07:42:10;26.11;48.95
66962;HTU21D;53897;51.126;5.868;2023-07-31T07:44:35;26.11;48.90
66962;HTU21D;53897;51.126;5.868;2023-07-31T07:47:01;26.10;48.95
66962;HTU21D;53897;51.126;5.868;2023-07-31T07:49:27;26.12;49.04
66962;HTU21D;53897;51.126;5.868;2023-07-31T07:51:52;26.11;49.02
66962;HTU21D;53897;51.126;5.868;2023-07-31T07:54:18;26.11;48.99
66962;HTU21D;53897;51.126;5.868;2023-07-31T07:56:45;26.11;48.95
66962;HTU21D;53897;51.126;5.868;2023-07-31T07:59:11;26.11;48.88
66962;HTU21D;53897;51.126;5.868;2023-07-31T08:01:36;26.09;48.85
66962;HTU21D;53897;51.126;5.868;2023-07-31T08:04:02;26.11;48.86
66962;HTU21D;53897;51.126;5.868;2023-07-31T08:06:28;26.10;48.87
66962;HTU21D;53897;51.126;5.868;2023-07-31T08:08:55;26.11;48.86
66962;HTU21D;53897;51.126;5.868;2023-07-31T08:11:20;26.10;48.87
66962;HTU21D;53897;51.126;5.868;2023-07-31T08:13:49;26.11;49.09
66962;HTU21D;53897;51.126;5.868;2023-07-31T08:16:15;26.11;49.15
66962;HTU21D;53897;51.126;5.868;2023-07-31T08:18:41;26.09;49.24
66962;HTU21D;53897;51.126;5.868;2023-07-31T08:21:08;26.06;49.34
66962;HTU21D;53897;51.126;5.868;2023-07-31T08:23:34;26.08;49.33
66962;HTU21D;53897;51.126;5.868;2023-07-31T08:26:00;26.07;49.26
66962;HTU21D;53897;51.126;5.868;2023-07-31T08:28:25;26.06;49.29
66962;HTU21D;53897;51.126;5.868;2023-07-31T08:30:51;26.06;49.32
66962;HTU21D;53897;51.126;5.868;2023-07-31T08:33:17;26.07;49.34
66962;HTU21D;53897;51.126;5.868;2023-07-31T08:35:42;26.08;49.35
66962;HTU21D;53897;51.126;5.868;2023-07-31T08:38:08;26.08;49.27
66962;HTU21D;53897;51.126;5.868;2023-07-31T08:40:36;26.07;49.28
66962;HTU21D;53897;51.126;5.868;2023-07-31T08:43:06;26.08;49.36
66962;HTU21D;53897;51.126;5.868;2023-07-31T08:45:32;26.08;49.26
66962;HTU21D;53897;51.126;5.868;2023-07-31T08:47:59;26.09;49.16
66962;HTU21D;53897;51.126;5.868;2023-07-31T08:50:25;26.10;49.13
66962;HTU21D;53897;51.126;5.868;2023-07-31T08:52:52;26.09;49.08
66962;HTU21D;53897;51.126;5.868;2023-07-31T08:55:19;26.09;49.05
66962;HTU21D;53897;51.126;5.868;2023-07-31T08:57:51;26.10;49.10
66962;HTU21D;53897;51.126;5.868;2023-07-31T09:00:20;26.10;49.17
66962;HTU21D;53897;51.126;5.868;2023-07-31T09:03:00;26.10;49.21
66962;HTU21D;53897;51.126;5.868;2023-07-31T09:05:29;26.11;49.21
66962;HTU21D;53897;51.126;5.868;2023-07-31T09:07:56;26.11;49.23
66962;HTU21D;53897;51.126;5.868;2023-07-31T09:10:22;26.11;49.35
66962;HTU21D;53897;51.126;5.868;2023-07-31T09:12:49;26.12;49.39
66962;HTU21D;53897;51.126;5.868;2023-07-31T09:15:16;26.12;49.40
66962;HTU21D;53897;51.126;5.868;2023-07-31T09:17:42;26.12;49.43
66962;HTU21D;53897;51.126;5.868;2023-07-31T09:22:42;26.13;49.50
66962;HTU21D;53897;51.126;5.868;2023-07-31T09:27:58;26.10;49.63
66962;HTU21D;53897;51.126;5.868;2023-07-31T09:30:24;26.08;49.75
66962;HTU21D;53897;51.126;5.868;2023-07-31T09:32:51;26.05;49.89
66962;HTU21D;53897;51.126;5.868;2023-07-31T09:37:56;26.02;50.00
66962;HTU21D;53897;51.126;5.868;2023-07-31T09:42:57;26.04;49.74
66962;HTU21D;53897;51.126;5.868;2023-07-31T09:45:24;26.06;49.63
66962;HTU21D;53897;51.126;5.868;2023-07-31T09:47:50;26.07;49.60
66962;HTU21D;53897;51.126;5.868;2023-07-31T09:50:16;26.08;49.64
66962;HTU21D;53897;51.126;5.868;2023-07-31T09:52:42;26.08;49.70
66962;HTU21D;53897;51.126;5.868;2023-07-31T09:55:09;26.09;49.75
66962;HTU21D;53897;51.126;5.868;2023-07-31T09:57:44;26.07;49.63
66962;HTU21D;53897;51.126;5.868;2023-07-31T10:00:12;26.09;49.61
66962;HTU21D;53897;51.126;5.868;2023-07-31T10:02:41;26.10;49.63
66962;HTU21D;53897;51.126;5.868;2023-07-31T10:05:07;26.10;49.66
66962;HTU21D;53897;51.126;5.868;2023-07-31T10:07:37;26.12;49.76
66962;HTU21D;53897;51.126;5.868;2023-07-31T10:10:07;26.12;49.76
66962;HTU21D;53897;51.126;5.868;2023-07-31T10:12:34;26.15;49.76
66962;HTU21D;53897;51.126;5.868;2023-07-31T10:15:02;26.15;49.79
66962;HTU21D;53897;51.126;5.868;2023-07-31T10:17:30;26.15;49.80
66962;HTU21D;53897;51.126;5.868;2023-07-31T10:20:01;26.17;49.85
66962;HTU21D;53897;51.126;5.868;2023-07-31T10:22:30;26.17;49.85
66962;HTU21D;53897;51.126;5.868;2023-07-31T10:24:58;26.18;49.79
66962;HTU21D;53897;51.126;5.868;2023-07-31T10:27:25;26.19;49.89
66962;HTU21D;53897;51.126;5.868;2023-07-31T10:29:53;26.19;50.02
66962;HTU21D;53897;51.126;5.868;2023-07-31T10:32:20;26.20;49.95
66962;HTU21D;53897;51.126;5.868;2023-07-31T10:34:49;26.21;49.86
66962;HTU21D;53897;51.126;5.868;2023-07-31T10:37:28;26.20;49.85
66962;HTU21D;53897;51.126;5.868;2023-07-31T10:40:04;26.20;49.90
66962;HTU21D;53897;51.126;5.868;2023-07-31T10:42:36;26.21;49.90
66962;HTU21D;53897;51.126;5.868;2023-07-31T10:45:08;26.20;49.82
66962;HTU21D;53897;51.126;5.868;2023-07-31T10:47:43;26.21;49.76
66962;HTU21D;53897;51.126;5.868;2023-07-31T10:50:21;26.20;49.72
66962;HTU21D;53897;51.126;5.868;2023-07-31T10:52:57;26.21;49.71
66962;HTU21D;53897;51.126;5.868;2023-07-31T10:55:42;26.22;49.69
66962;HTU21D;53897;51.126;5.868;2023-07-31T10:58:13;26.22;49.67
66962;HTU21D;53897;51.126;5.868;2023-07-31T11:00:40;26.22;49.74
66962;HTU21D;53897;51.126;5.868;2023-07-31T11:03:17;26.22;49.72
66962;HTU21D;53897;51.126;5.868;2023-07-31T11:05:55;26.22;49.74
66962;HTU21D;53897;51.126;5.868;2023-07-31T11:08:27;26.23;49.73
66962;HTU21D;53897;51.126;5.868;2023-07-31T11:13:28;26.23;49.81
66962;HTU21D;53897;51.126;5.868;2023-07-31T11:15:54;26.23;49.75
66962;HTU21D;53897;51.126;5.868;2023-07-31T11:18:20;26.23;49.70
66962;HTU21D;53897;51.126;5.868;2023-07-31T11:20:45;26.23;49.70
66962;HTU21D;53897;51.126;5.868;2023-07-31T11:23:11;26.23;49.77
66962;HTU21D;53897;51.126;5.868;2023-07-31T11:25:39;26.24;49.79
66962;HTU21D;53897;51.126;5.868;2023-07-31T11:28:15;26.24;49.73
66962;HTU21D;53897;51.126;5.868;2023-07-31T11:30:43;26.23;49.75
66962;HTU21D;53897;51.126;5.868;2023-07-31T11:33:11;26.24;49.79
66962;HTU21D;53897;51.126;5.868;2023-07-31T11:35:46;26.24;49.90
66962;HTU21D;53897;51.126;5.868;2023-07-31T11:38:26;26.26;49.96
66962;HTU21D;53897;51.126;5.868;2023-07-31T11:40:53;26.24;50.01
66962;HTU21D;53897;51.126;5.868;2023-07-31T11:43:21;26.23;50.04
66962;HTU21D;53897;51.126;5.868;2023-07-31T11:45:52;26.22;50.08
66962;HTU21D;53897;51.126;5.868;2023-07-31T11:48:25;26.21;50.15
66962;HTU21D;53897;51.126;5.868;2023-07-31T11:50:53;26.20;50.25
66962;HTU21D;53897;51.126;5.868;2023-07-31T11:53:31;26.16;50.32
66962;HTU21D;53897;51.126;5.868;2023-07-31T11:55:59;26.11;50.43
66962;HTU21D;53897;51.126;5.868;2023-07-31T11:58:27;26.11;50.50
66962;HTU21D;53897;51.126;5.868;2023-07-31T12:00:54;26.13;50.37
66962;HTU21D;53897;51.126;5.868;2023-07-31T12:03:20;26.15;50.29
66962;HTU21D;53897;51.126;5.868;2023-07-31T12:05:47;26.15;50.22
66962;HTU21D;53897;51.126;5.868;2023-07-31T12:08:13;26.17;50.17
66962;HTU21D;53897;51.126;5.868;2023-07-31T12:10:39;26.19;50.16
66962;HTU21D;53897;51.126;5.868;2023-07-31T12:13:11;26.21;50.13
66962;HTU21D;53897;51.126;5.868;2023-07-31T12:15:45;26.22;50.14
66962;HTU21D;53897;51.126;5.868;2023-07-31T12:18:13;26.22;50.22
66962;HTU21D;53897;51.126;5.868;2023-07-31T12:20:43;26.24;50.27
66962;HTU21D;53897;51.126;5.868;2023-07-31T12:23:16;26.25;50.30
66962;HTU21D;53897;51.126;5.868;2023-07-31T12:25:42;26.24;50.28
66962;HTU21D;53897;51.126;5.868;2023-07-31T12:28:08;26.25;50.33
66962;HTU21D;53897;51.126;5.868;2023-07-31T12:30:39;26.25;50.39
66962;HTU21D;53897;51.126;5.868;2023-07-31T12:33:23;26.26;50.49
66962;HTU21D;53897;51.126;5.868;2023-07-31T12:35:49;26.28;50.54
66962;HTU21D;53897;51.126;5.868;2023-07-31T12:38:14;26.30;50.59
66962;HTU21D;53897;51.126;5.868;2023-07-31T12:40:41;26.30;50.61
66962;HTU21D;53897;51.126;5.868;2023-07-31T12:43:08;26.30;50.59
66962;HTU21D;53897;51.126;5.868;2023-07-31T12:45:34;26.32;50.61
66962;HTU21D;53897;51.126;5.868;2023-07-31T12:48:01;26.33;50.79
66962;HTU21D;53897;51.126;5.868;2023-07-31T12:50:27;26.33;50.85
66962;HTU21D;53897;51.126;5.868;2023-07-31T12:52:53;26.35;50.86
66962;HTU21D;53897;51.126;5.868;2023-07-31T12:55:21;26.34;50.85
66962;HTU21D;53897;51.126;5.868;2023-07-31T12:57:46;26.35;50.83
66962;HTU21D;53897;51.126;5.868;2023-07-31T13:00:13;26.36;50.81
66962;HTU21D;53897;51.126;5.868;2023-07-31T13:02:39;26.36;50.82
66962;HTU21D;53897;51.126;5.868;2023-07-31T13:05:04;26.38;50.91
66962;HTU21D;53897;51.126;5.868;2023-07-31T13:07:30;26.38;50.92
66962;HTU21D;53897;51.126;5.868;2023-07-31T13:09:56;26.39;51.05
66962;HTU21D;53897;51.126;5.868;2023-07-31T13:12:22;26.40;50.96
66962;HTU21D;53897;51.126;5.868;2023-07-31T13:14:47;26.40;50.95
66962;HTU21D;53897;51.126;5.868;2023-07-31T13:17:13;26.41;51.05
66962;HTU21D;53897;51.126;5.868;2023-07-31T13:19:39;26.42;51.01
66962;HTU21D;53897;51.126;5.868;2023-07-31T13:22:04;26.41;50.93
66962;HTU21D;53897;51.126;5.868;2023-07-31T13:24:30;26.43;50.86
66962;HTU21D;53897;51.126;5.868;2023-07-31T13:26:57;26.42;50.88
66962;HTU21D;53897;51.126;5.868;2023-07-31T13:29:23;26.43;50.93
66962;HTU21D;53897;51.126;5.868;2023-07-31T13:31:49;26.41;50.94
66962;HTU21D;53897;51.126;5.868;2023-07-31T13:34:15;26.42;50.95
66962;HTU21D;53897;51.126;5.868;2023-07-31T13:36:41;26.42;50.92
66962;HTU21D;53897;51.126;5.868;2023-07-31T13:39:07;26.42;50.85
66962;HTU21D;53897;51.126;5.868;2023-07-31T13:41:33;26.42;50.78
66962;HTU21D;53897;51.126;5.868;2023-07-31T13:43:58;26.42;50.72
66962;HTU21D;53897;51.126;5.868;2023-07-31T13:46:24;26.42;50.69
66962;HTU21D;53897;51.126;5.868;2023-07-31T13:48:51;26.43;50.66
66962;HTU21D;53897;51.126;5.868;2023-07-31T13:51:20;26.43;50.64
66962;HTU21D;53897;51.126;5.868;2023-07-31T13:53:45;26.43;50.62
66962;HTU21D;53897;51.126;5.868;2023-07-31T13:56:11;26.43;50.59
66962;HTU21D;53897;51.126;5.868;2023-07-31T13:58:37;26.42;50.57
66962;HTU21D;53897;51.126;5.868;2023-07-31T14:01:02;26.43;50.56
66962;HTU21D;53897;51.126;5.868;2023-07-31T14:03:28;26.42;50.53
66962;HTU21D;53897;51.126;5.868;2023-07-31T14:05:55;26.42;50.51
66962;HTU21D;53897;51.126;5.868;2023-07-31T14:08:21;26.43;50.50
66962;HTU21D;53897;51.126;5.868;2023-07-31T14:10:47;26.43;50.47
66962;HTU21D;53897;51.126;5.868;2023-07-31T14:13:13;26.42;50.44
66962;HTU21D;53897;51.126;5.868;2023-07-31T14:15:41;26.42;50.42
66962;HTU21D;53897;51.126;5.868;2023-07-31T14:18:07;26.42;50.40
66962;HTU21D;53897;51.126;5.868;2023-07-31T14:20:33;26.42;50.42
66962;HTU21D;53897;51.126;5.868;2023-07-31T14:22:58;26.42;50.47
66962;HTU21D;53897;51.126;5.868;2023-07-31T14:25:25;26.43;50.39
66962;HTU21D;53897;51.126;5.868;2023-07-31T14:27:50;26.42;50.42
66962;HTU21D;53897;51.126;5.868;2023-07-31T14:30:16;26.42;50.41
66962;HTU21D;53897;51.126;5.868;2023-07-31T14:32:44;26.41;50.39
66962;HTU21D;53897;51.126;5.868;2023-07-31T14:35:09;26.41;50.44
66962;HTU21D;53897;51.126;5.868;2023-07-31T14:37:44;26.40;50.43
66962;HTU21D;53897;51.126;5.868;2023-07-31T14:40:12;26.39;50.45
66962;HTU21D;53897;51.126;5.868;2023-07-31T14:42:38;26.40;50.52
66962;HTU21D;53897;51.126;5.868;2023-07-31T14:45:06;26.39;50.55
66962;HTU21D;53897;51.126;5.868;2023-07-31T14:47:32;26.38;50.53
66962;HTU21D;53897;51.126;5.868;2023-07-31T14:49:59;26.37;50.50
66962;HTU21D;53897;51.126;5.868;2023-07-31T14:52:25;26.38;50.55
66962;HTU21D;53897;51.126;5.868;2023-07-31T14:54:52;26.38;50.57
66962;HTU21D;53897;51.126;5.868;2023-07-31T14:57:17;26.38;50.56
66962;HTU21D;53897;51.126;5.868;2023-07-31T14:59:44;26.39;50.55
66962;HTU21D;53897;51.126;5.868;2023-07-31T15:02:10;26.39;50.55
66962;HTU21D;53897;51.126;5.868;2023-07-31T15:04:36;26.40;50.56
66962;HTU21D;53897;51.126;5.868;2023-07-31T15:07:02;26.40;50.66
66962;HTU21D;53897;51.126;5.868;2023-07-31T15:09:28;26.41;50.91
66962;HTU21D;53897;51.126;5.868;2023-07-31T15:11:55;26.40;51.00
66962;HTU21D;53897;51.126;5.868;2023-07-31T15:14:21;26.40;51.02
66962;HTU21D;53897;51.126;5.868;2023-07-31T15:16:46;26.42;51.08
66962;HTU21D;53897;51.126;5.868;2023-07-31T15:19:12;26.42;51.12
66962;HTU21D;53897;51.126;5.868;2023-07-31T15:21:38;26.41;51.17
66962;HTU21D;53897;51.126;5.868;2023-07-31T15:24:04;26.42;51.19
66962;HTU21D;53897;51.126;5.868;2023-07-31T15:26:29;26.43;51.23
66962;HTU21D;53897;51.126;5.868;2023-07-31T15:29:00;26.43;51.27